Time;durP1;ratioP1;P1;durP2;ratioP2;P2;SDS_P1;SDS_P2;PMS_P1;PMS_P2;Temp;Humidity;BMP_temperature;BMP_pressure;BME280_temperature;BME280_humidity;BME280_pressure;Samples;Min_cycle;Max_cycle;Signal;HPM_P1;HPM_P2
2021/04/10 00:02:22;;;;;;;21.20;4.85;;;9.20;99.90;;;;;;1923660;74;21100;-67
2021/04/10 00:04:50;;;;;;;20.60;4.30;;;9.20;99.90;;;;;;1911552;73;21164;-66
2021/04/10 00:07:17;;;;;;;16.30;5.10;;;9.20;99.90;;;;;;1903587;74;21423;-65
2021/04/10 00:09:45;;;;;;;21.52;4.87;;;9.20;99.90;;;;;;1926217;74;21077;-67
2021/04/10 00:12:13;;;;;;;14.60;4.25;;;9.20;99.90;;;;;;1918959;74;22133;-65
2021/04/10 00:14:40;;;;;;;12.13;4.08;;;9.20;99.90;;;;;;1922912;74;21105;-66
2021/04/10 00:17:08;;;;;;;17.62;4.95;;;9.30;99.90;;;;;;1922319;74;21081;-67
2021/04/10 00:19:36;;;;;;;16.62;4.28;;;9.30;99.90;;;;;;1924403;74;21112;-67
2021/04/10 00:22:03;;;;;;;14.58;5.12;;;9.20;99.90;;;;;;1926484;74;21154;-67
2021/04/10 00:24:31;;;;;;;17.10;4.83;;;9.30;99.90;;;;;;1924354;73;21140;-67
2021/04/10 00:26:58;;;;;;;15.10;4.10;;;9.20;99.90;;;;;;1919614;74;21096;-67
2021/04/10 00:29:26;;;;;;;15.43;4.50;;;9.10;99.90;;;;;;1912636;73;21546;-67
2021/04/10 00:31:53;;;;;;;18.10;4.62;;;9.10;99.90;;;;;;1885896;74;21114;-67
2021/04/10 00:34:21;;;;;;;16.32;4.47;;;9.10;99.90;;;;;;1918252;74;21061;-67
2021/04/10 00:36:48;;;;;;;19.92;4.53;;;9.10;99.90;;;;;;1924247;73;21186;-67
2021/04/10 00:39:16;;;;;;;15.72;4.22;;;9.10;99.90;;;;;;1915968;73;21709;-67
2021/04/10 00:41:43;;;;;;;14.68;4.50;;;9.10;99.90;;;;;;1863666;75;21101;-67
2021/04/10 00:44:11;;;;;;;16.15;4.75;;;9.10;99.90;;;;;;1866791;75;21157;-67
2021/04/10 00:46:38;;;;;;;13.43;4.85;;;9.10;99.90;;;;;;1863607;75;21100;-66
2021/04/10 00:49:06;;;;;;;18.70;4.42;;;9.10;99.90;;;;;;1866696;75;21468;-67
2021/04/10 00:51:33;;;;;;;18.35;4.60;;;9.10;99.90;;;;;;1900587;74;22165;-67
2021/04/10 00:54:01;;;;;;;18.45;4.53;;;9.10;99.90;;;;;;1934961;73;21139;-67
2021/04/10 00:56:29;;;;;;;15.23;4.45;;;9.00;99.90;;;;;;1939256;73;21684;-67
2021/04/10 00:58:56;;;;;;;14.73;4.47;;;8.90;99.90;;;;;;1935785;72;21135;-67
2021/04/10 01:01:24;;;;;;;19.07;4.53;;;8.90;99.90;;;;;;1940293;73;21056;-67
2021/04/10 01:03:52;;;;;;;14.78;4.55;;;8.90;99.90;;;;;;1938908;73;20998;-68
2021/04/10 01:06:19;;;;;;;17.32;4.33;;;8.80;99.90;;;;;;1938670;73;21138;-68
2021/04/10 01:08:46;;;;;;;16.97;5.08;;;8.80;99.90;;;;;;1937609;73;21276;-68
2021/04/10 01:11:35;;;;;;;16.20;4.78;;;8.80;99.90;;;;;;1937694;73;21578;-67
2021/04/10 01:14:29;;;;;;;14.53;4.37;;;8.90;99.90;;;;;;1936272;73;21526;-68
2021/04/10 01:17:02;;;;;;;15.48;4.40;;;8.80;99.90;;;;;;1933693;73;21099;-68
2021/04/10 01:19:51;;;;;;;21.45;4.92;;;8.70;99.90;;;;;;1934327;73;21209;-67
2021/04/10 01:22:24;;;;;;;15.53;3.90;;;8.60;99.90;;;;;;1931067;73;21630;-68
2021/04/10 01:25:00;;;;;;;12.43;4.03;;;8.60;99.90;;;;;;1942442;73;21566;-67
2021/04/10 01:27:43;;;;;;;22.87;4.95;;;8.60;99.90;;;;;;1935628;73;21562;-67
2021/04/10 01:30:16;;;;;;;18.23;4.87;;;8.70;99.90;;;;;;1937364;72;22130;-69
2021/04/10 01:33:03;;;;;;;13.60;4.58;;;8.70;99.90;;;;;;1939328;73;21085;-68
2021/04/10 01:35:39;;;;;;;23.07;5.17;;;8.70;99.90;;;;;;1934778;73;21105;-67
2021/04/10 01:38:10;;;;;;;17.20;5.30;;;8.70;99.90;;;;;;1931362;72;21124;-68
2021/04/10 01:40:39;;;;;;;16.07;4.83;;;8.80;99.90;;;;;;1932926;73;21170;-68
2021/04/10 01:43:08;;;;;;;16.17;4.65;;;8.80;99.90;;;;;;1940024;73;21166;-68
2021/04/10 01:45:37;;;;;;;15.20;4.70;;;8.80;99.90;;;;;;1939740;72;21546;-68
2021/04/10 01:48:07;;;;;;;15.60;5.28;;;8.80;99.90;;;;;;1938270;73;21080;-68
2021/04/10 01:50:36;;;;;;;17.30;4.70;;;8.90;99.90;;;;;;1935480;73;21648;-68
2021/04/10 01:53:06;;;;;;;16.20;4.92;;;9.00;99.90;;;;;;1941457;73;21179;-68
2021/04/10 01:55:35;;;;;;;17.87;5.08;;;9.10;99.90;;;;;;1934551;72;21153;-68
2021/04/10 01:58:03;;;;;;;14.28;4.60;;;9.10;99.90;;;;;;1939413;73;21087;-68
2021/04/10 02:00:33;;;;;;;21.68;5.00;;;9.00;99.90;;;;;;1937274;73;21062;-68
2021/04/10 02:03:02;;;;;;;22.77;5.20;;;9.10;99.90;;;;;;1938654;73;21097;-68
2021/04/10 02:05:30;;;;;;;16.35;5.08;;;9.00;99.90;;;;;;1936885;73;21511;-68
2021/04/10 02:07:58;;;;;;;16.97;5.12;;;9.10;99.90;;;;;;1939070;73;21112;-68
2021/04/10 02:10:27;;;;;;;20.35;6.17;;;9.10;99.90;;;;;;1938012;73;21701;-68
2021/04/10 02:12:56;;;;;;;17.98;5.67;;;9.10;99.90;;;;;;1938507;73;21116;-68
2021/04/10 02:15:24;;;;;;;16.00;4.95;;;9.10;99.90;;;;;;1937437;72;21138;-68
2021/04/10 02:17:53;;;;;;;16.97;5.70;;;9.10;99.90;;;;;;1938022;73;21128;-67
2021/04/10 02:20:22;;;;;;;18.57;5.08;;;9.10;99.90;;;;;;1935673;72;21120;-68
2021/04/10 02:22:53;;;;;;;16.37;5.42;;;9.10;99.90;;;;;;1935179;73;21752;-68
2021/04/10 06:28:40;;;;;;;13.25;3.10;;;8.90;99.90;;;;;;1935205;71;21222;31
2021/04/10 06:31:08;;;;;;;10.40;2.50;;;8.90;99.90;;;;;;1923987;73;21191;-67
2021/04/10 06:33:35;;;;;;;12.82;2.92;;;9.00;99.90;;;;;;1924275;73;21108;-69
2021/04/10 06:36:03;;;;;;;11.40;2.30;;;9.00;99.90;;;;;;1919844;73;21629;-68
2021/04/10 06:38:30;;;;;;;9.28;2.37;;;9.00;99.90;;;;;;1922737;73;21097;-68
2021/04/10 06:40:59;;;;;;;14.58;2.87;;;9.10;99.90;;;;;;1891787;74;21140;-67
2021/04/10 06:43:26;;;;;;;13.48;2.75;;;9.20;99.90;;;;;;1896305;74;21194;-69
2021/04/10 06:45:55;;;;;;;11.08;2.50;;;9.20;99.90;;;;;;1895976;74;21345;-68
2021/04/10 06:48:27;;;;;;;13.93;2.83;;;9.30;99.90;;;;;;1889790;74;21154;-69
2021/04/10 06:50:55;;;;;;;11.63;2.55;;;9.20;99.90;;;;;;1892472;74;21124;-67
2021/04/10 06:53:24;;;;;;;10.32;2.52;;;9.20;99.90;;;;;;1892876;74;21134;-69
2021/04/10 06:55:54;;;;;;;17.37;3.20;;;9.20;99.90;;;;;;1893042;74;21048;-69
2021/04/10 06:58:30;;;;;;;15.63;3.15;;;9.20;99.90;;;;;;1889355;74;21104;-68
2021/04/10 07:00:58;;;;;;;12.50;2.95;;;9.20;99.90;;;;;;1890285;74;21124;-69
2021/04/10 07:03:26;;;;;;;13.40;2.55;;;9.20;99.90;;;;;;1894558;74;21696;-69
2021/04/10 07:05:54;;;;;;;16.30;3.55;;;9.20;99.90;;;;;;1890914;74;21033;-66
2021/04/10 07:08:23;;;;;;;16.15;3.02;;;9.20;99.90;;;;;;1893362;74;21628;-67
2021/04/10 07:10:51;;;;;;;15.65;2.90;;;9.30;99.90;;;;;;1891234;74;21161;-67
2021/04/10 07:13:19;;;;;;;14.07;3.30;;;9.40;99.90;;;;;;1892584;74;21527;-66
2021/04/10 07:15:47;;;;;;;14.90;2.95;;;9.40;99.90;;;;;;1891884;74;21052;-67
2021/04/10 07:18:15;;;;;;;18.27;3.92;;;9.40;99.90;;;;;;1897535;74;21123;-67
2021/04/10 07:20:42;;;;;;;16.35;3.60;;;9.50;99.90;;;;;;1899266;74;21107;-67
2021/04/10 07:23:14;;;;;;;20.12;4.20;;;9.30;99.90;;;;;;1892236;74;21006;-68
2021/04/10 07:25:46;;;;;;;19.70;3.77;;;9.30;99.90;;;;;;1892357;74;20994;-67
2021/04/10 07:28:33;;;;;;;15.18;3.17;;;9.40;99.90;;;;;;1893419;74;21530;-66
2021/04/10 07:31:09;;;;;;;16.45;3.40;;;9.50;99.90;;;;;;1897311;74;21051;-68
2021/04/10 07:33:39;;;;;;;18.77;3.83;;;9.40;99.90;;;;;;1892398;74;21033;-67
2021/04/10 07:36:10;;;;;;;13.53;3.40;;;9.40;99.90;;;;;;1895113;74;21073;-67
2021/04/10 07:38:44;;;;;;;10.80;2.80;;;9.50;99.90;;;;;;1891257;74;21029;-67
2021/04/10 07:41:17;;;;;;;11.12;2.85;;;9.60;99.90;;;;;;1895309;74;21064;-74
2021/04/10 07:43:46;;;;;;;16.80;3.42;;;9.60;99.90;;;;;;1895837;74;21476;-68
2021/04/10 07:46:21;;;;;;;18.55;3.65;;;9.60;99.90;;;;;;1888074;74;21093;-68
2021/04/10 07:49:09;;;;;;;13.53;3.02;;;9.60;99.90;;;;;;1897318;73;21543;-68
2021/04/10 07:51:54;;;;;;;11.85;2.77;;;9.60;99.90;;;;;;1891090;74;21096;-69
2021/04/10 07:54:30;;;;;;;14.47;2.77;;;9.80;99.90;;;;;;1893327;74;21088;-68
2021/04/10 07:57:02;;;;;;;14.15;3.67;;;9.90;99.90;;;;;;1897117;74;21154;-69
2021/04/10 07:59:32;;;;;;;19.27;3.20;;;9.90;99.90;;;;;;1894377;74;21618;-68
2021/04/10 08:02:14;;;;;;;14.68;2.70;;;9.90;99.90;;;;;;1892248;74;21086;-68
2021/04/10 08:04:44;;;;;;;14.15;3.20;;;9.90;99.90;;;;;;1891350;74;21100;-68
2021/04/10 08:07:12;;;;;;;12.33;3.10;;;10.00;99.90;;;;;;1893016;74;21202;-69
2021/04/10 08:09:40;;;;;;;9.03;2.52;;;10.10;99.90;;;;;;1893938;74;21198;-68
2021/04/10 08:12:11;;;;;;;16.10;2.90;;;10.10;99.90;;;;;;1892509;74;21100;-68
2021/04/10 08:14:44;;;;;;;20.05;3.33;;;10.20;99.90;;;;;;1889314;74;21547;-69
2021/04/10 08:17:13;;;;;;;11.50;3.00;;;10.10;99.90;;;;;;1891256;74;21756;-69
2021/04/10 08:19:41;;;;;;;14.13;3.20;;;10.20;99.90;;;;;;1892736;74;21097;-70
2021/04/10 08:22:10;;;;;;;15.63;3.05;;;10.20;99.90;;;;;;1893224;74;21057;-66
2021/04/10 08:24:42;;;;;;;15.88;3.30;;;10.20;99.90;;;;;;1894725;74;21084;-68
2021/04/10 08:27:16;;;;;;;13.03;3.17;;;10.20;99.90;;;;;;1892932;74;21131;-67
2021/04/10 08:29:44;;;;;;;14.35;2.80;;;10.20;99.40;;;;;;1891443;74;21139;-67
2021/04/10 08:32:12;;;;;;;8.13;2.15;;;10.30;99.70;;;;;;1889897;74;21663;-68
2021/04/10 08:34:40;;;;;;;11.60;2.55;;;10.20;99.90;;;;;;1891030;74;21162;-68
2021/04/10 08:37:13;;;;;;;9.03;2.12;;;10.20;98.90;;;;;;1893077;74;21175;-67
2021/04/10 08:39:49;;;;;;;11.28;2.58;;;10.20;98.90;;;;;;1888173;74;21112;-68
2021/04/10 08:42:18;;;;;;;10.88;2.70;;;10.20;98.80;;;;;;1889747;74;21120;-67
2021/04/10 08:44:48;;;;;;;13.55;2.60;;;10.30;99.00;;;;;;1887319;74;21085;-67
2021/04/10 08:47:17;;;;;;;12.82;2.47;;;10.30;98.90;;;;;;1890135;74;21120;-68
2021/04/10 08:49:48;;;;;;;11.30;2.67;;;10.40;99.10;;;;;;1889379;74;21135;-67
2021/04/10 08:52:23;;;;;;;13.13;2.45;;;10.50;98.40;;;;;;1894404;74;21073;-68
2021/04/10 08:54:52;;;;;;;10.65;2.17;;;10.50;98.50;;;;;;1891265;74;21081;-68
2021/04/10 08:57:19;;;;;;;16.50;2.50;;;10.50;97.70;;;;;;1892535;74;21033;-67
2021/04/10 08:59:48;;;;;;;13.10;2.30;;;10.50;98.50;;;;;;1890330;74;21131;-68
2021/04/10 09:02:24;;;;;;;12.98;2.72;;;10.50;97.40;;;;;;1890886;74;21113;-66
2021/04/10 09:04:58;;;;;;;10.30;2.75;;;10.60;97.40;;;;;;1885198;74;21188;-69
2021/04/10 09:07:51;;;;;;;11.48;2.50;;;10.60;97.70;;;;;;1890841;74;21154;-68
2021/04/10 09:10:28;;;;;;;12.88;2.85;;;10.60;97.50;;;;;;1892441;74;21222;-67
2021/04/10 09:13:14;;;;;;;9.85;2.20;;;10.70;96.60;;;;;;1891056;74;21080;-71
2021/04/10 09:15:42;;;;;;;10.80;2.40;;;10.70;96.90;;;;;;1891619;74;21073;-71
2021/04/10 09:18:13;;;;;;;13.65;2.50;;;10.80;96.70;;;;;;1898697;74;21170;-68
2021/04/10 09:20:48;;;;;;;9.13;2.02;;;10.80;97.00;;;;;;1893325;74;21132;-68
2021/04/10 09:23:24;;;;;;;15.20;2.37;;;10.90;96.80;;;;;;1897015;74;21135;-68
2021/04/10 09:26:11;;;;;;;9.88;2.40;;;10.90;96.00;;;;;;1890836;74;21120;-69
2021/04/10 09:29:01;;;;;;;10.25;2.85;;;11.00;94.60;;;;;;1889716;74;21095;-69
2021/04/10 09:31:40;;;;;;;12.78;2.62;;;11.00;95.00;;;;;;1894284;74;21160;-69
2021/04/10 09:34:45;;;;;;;10.40;2.12;;;10.90;95.60;;;;;;1892492;74;21119;-69
2021/04/10 09:37:25;;;;;;;12.10;1.92;;;10.90;96.00;;;;;;1892739;74;21120;-69
2021/04/10 09:39:58;;;;;;;6.40;1.65;;;11.00;95.70;;;;;;1893172;74;21097;-69
2021/04/10 09:45:27;;;;;;;9.78;2.12;;;11.00;95.10;;;;;;1892391;74;21092;-68
2021/04/10 09:48:00;;;;;;;8.75;2.05;;;11.10;93.90;;;;;;1896394;74;21092;-69
2021/04/10 09:50:33;;;;;;;10.98;2.40;;;11.10;93.30;;;;;;1896605;74;21140;-69
2021/04/10 09:53:03;;;;;;;11.20;2.40;;;11.10;95.20;;;;;;1890584;74;21653;-69
2021/04/10 09:55:35;;;;;;;8.00;2.12;;;11.30;94.90;;;;;;1896364;74;21648;-70
2021/04/10 09:58:08;;;;;;;14.10;2.52;;;11.30;95.40;;;;;;1902118;74;21057;-70
2021/04/10 10:00:38;;;;;;;14.40;3.00;;;11.20;94.90;;;;;;1892620;74;21249;-70
2021/04/10 10:03:07;;;;;;;14.75;2.20;;;11.20;94.60;;;;;;1899033;74;21065;-70
2021/04/10 10:05:39;;;;;;;9.38;2.10;;;11.30;93.20;;;;;;1897007;74;21730;-70
2021/04/10 10:08:10;;;;;;;9.08;2.15;;;11.30;93.00;;;;;;1894016;74;21156;-70
2021/04/10 10:10:49;;;;;;;15.65;2.58;;;11.30;93.00;;;;;;1899469;74;21096;-70
2021/04/10 10:13:19;;;;;;;8.58;2.45;;;11.30;94.80;;;;;;1903566;74;21217;-70
2021/04/10 10:15:49;;;;;;;8.53;2.12;;;11.40;94.20;;;;;;1894254;74;21044;-71
2021/04/10 10:18:18;;;;;;;9.53;1.77;;;11.50;93.20;;;;;;1897187;74;21056;-71
2021/04/10 10:21:11;;;;;;;12.82;3.77;;;11.50;92.90;;;;;;1889877;74;21096;-71
2021/04/10 10:23:44;;;;;;;15.88;6.33;;;11.30;92.50;;;;;;1890426;74;21123;-70
2021/04/10 10:26:18;;;;;;;11.53;2.45;;;11.20;93.70;;;;;;1887960;74;21598;-69
2021/04/10 10:28:48;;;;;;;8.50;2.33;;;11.40;93.20;;;;;;1883414;74;21167;-70
2021/04/10 10:31:19;;;;;;;8.15;2.10;;;11.50;92.80;;;;;;1889188;74;21076;-70
2021/04/10 10:33:47;;;;;;;7.40;2.12;;;11.60;91.90;;;;;;1892316;74;21115;-70
2021/04/10 10:36:16;;;;;;;8.08;2.15;;;11.60;91.90;;;;;;1891404;74;21120;-70
2021/04/10 10:38:47;;;;;;;12.30;2.45;;;11.60;91.70;;;;;;1893134;74;21076;-69
2021/04/10 10:41:16;;;;;;;8.05;1.80;;;11.60;92.30;;;;;;1892946;74;21029;-71
2021/04/10 10:43:45;;;;;;;11.00;2.40;;;11.70;91.80;;;;;;1896836;74;21045;-71
2021/04/10 10:46:20;;;;;;;9.68;2.05;;;11.70;91.80;;;;;;1896145;74;21045;-70
2021/04/10 10:48:50;;;;;;;9.28;2.15;;;11.60;91.40;;;;;;1893620;74;21160;-69
2021/04/10 10:51:19;;;;;;;8.45;2.30;;;11.70;91.80;;;;;;1893930;74;21560;-71
2021/04/10 10:53:55;;;;;;;7.83;2.15;;;11.80;91.90;;;;;;1898591;74;21738;-70
2021/04/10 10:56:30;;;;;;;8.65;2.05;;;11.90;91.60;;;;;;1896679;74;21010;-70
2021/04/10 10:59:06;;;;;;;5.72;2.15;;;12.00;90.50;;;;;;1899814;74;21073;-73
2021/04/10 11:01:38;;;;;;;8.63;2.12;;;12.00;91.30;;;;;;1896227;74;21510;-73
2021/04/10 11:04:24;;;;;;;16.87;3.58;;;12.00;91.90;;;;;;1896536;74;21092;-68
2021/04/10 11:06:54;;;;;;;13.28;2.87;;;12.00;92.60;;;;;;1892474;74;21205;-77
2021/04/10 11:09:26;;;;;;;11.20;2.35;;;12.30;93.90;;;;;;1897032;74;21148;-76
2021/04/10 11:11:55;;;;;;;;;;;12.40;92.30;;;;;;1897285;74;21076;-75
2021/04/10 11:14:26;;;;;;;11.48;2.40;;;12.60;91.80;;;;;;1893008;74;20213;-76
2021/04/10 11:16:56;;;;;;;9.93;2.67;;;12.60;92.00;;;;;;1892778;74;21182;-76
2021/04/10 11:19:28;;;;;;;15.10;4.33;;;12.70;91.10;;;;;;1895421;74;21182;-76
2021/04/10 11:21:58;;;;;;;9.95;2.83;;;12.70;92.10;;;;;;1892026;74;21100;-76
2021/04/10 11:24:43;;;;;;;10.45;2.25;;;12.70;91.80;;;;;;1894452;74;21594;-76
2021/04/10 11:27:13;;;;;;;13.22;2.70;;;12.80;92.60;;;;;;1888247;74;21131;-78
2021/04/10 11:29:51;;;;;;;9.05;2.37;;;12.90;92.90;;;;;;1893854;74;21159;-78
2021/04/10 11:32:40;;;;;;;11.65;4.72;;;13.00;91.50;;;;;;1888831;74;21159;-78
2021/04/10 11:35:07;;;;;;;8.75;2.33;;;13.00;90.90;;;;;;1895012;74;21088;-78
2021/04/10 11:37:37;;;;;;;15.65;3.00;;;12.90;91.40;;;;;;1893723;74;21146;-77
2021/04/10 11:40:08;;;;;;;9.08;2.22;;;12.90;91.00;;;;;;1894874;74;21492;-77
2021/04/10 11:42:44;;;;;;;8.55;2.22;;;12.70;91.30;;;;;;1890908;74;21771;-76
2021/04/10 11:45:14;;;;;;;9.90;2.37;;;12.70;90.50;;;;;;1894172;74;21057;-68
2021/04/10 11:47:42;;;;;;;11.40;2.40;;;12.70;91.20;;;;;;1891533;74;21695;-74
2021/04/10 11:50:15;;;;;;;9.55;2.25;;;12.60;90.40;;;;;;1890221;74;21550;-76
2021/04/10 11:52:44;;;;;;;8.48;2.40;;;12.60;91.20;;;;;;1894341;74;21116;-74
2021/04/10 11:55:17;;;;;;;8.30;2.25;;;12.50;90.50;;;;;;1895947;74;21224;-68
2021/04/10 11:57:47;;;;;;;10.98;2.87;;;12.50;91.30;;;;;;1893908;74;21123;-71
2021/04/10 12:00:17;;;;;;;11.73;2.30;;;12.40;90.70;;;;;;1891601;74;21124;-68
2021/04/10 12:02:48;;;;;;;9.30;2.05;;;12.40;91.50;;;;;;1896490;74;21076;-69
2021/04/10 12:05:24;;;;;;;10.97;2.10;;;12.50;91.70;;;;;;1895721;74;21526;-68
2021/04/10 12:08:08;;;;;;;18.02;2.72;;;12.60;89.80;;;;;;1890714;74;21170;-69
2021/04/10 12:10:41;;;;;;;10.95;2.25;;;12.60;90.70;;;;;;1889963;74;21086;-68
2021/04/10 12:13:09;;;;;;;7.90;2.52;;;12.70;90.70;;;;;;1895944;74;21112;-69
2021/04/10 12:15:38;;;;;;;11.40;2.45;;;12.60;87.40;;;;;;1892169;74;21144;-69
2021/04/10 12:18:08;;;;;;;12.85;2.65;;;12.70;90.10;;;;;;1894443;74;21065;-68
2021/04/10 12:20:38;;;;;;;12.43;5.15;;;12.60;89.00;;;;;;1897797;74;21120;-68
2021/04/10 12:23:08;;;;;;;7.47;2.92;;;12.50;86.90;;;;;;1893283;74;21116;-68
2021/04/10 12:25:36;;;;;;;15.25;2.77;;;12.50;88.20;;;;;;1890904;74;21061;-68
2021/04/10 12:28:04;;;;;;;10.48;1.95;;;12.60;88.30;;;;;;1892633;74;21067;-68
2021/04/10 12:30:32;;;;;;;10.63;2.20;;;12.70;87.80;;;;;;1935044;72;21138;-70
2021/04/10 12:33:00;;;;;;;11.25;2.30;;;12.70;88.00;;;;;;1955288;72;21168;-71
2021/04/10 12:35:27;;;;;;;10.40;2.67;;;12.80;86.50;;;;;;1964754;72;21098;-70
2021/04/10 12:37:55;;;;;;;8.48;2.20;;;12.90;86.90;;;;;;1963618;72;21090;-70
2021/04/10 12:40:23;;;;;;;5.83;1.90;;;12.90;86.60;;;;;;1962871;72;21087;-70
2021/04/10 12:42:51;;;;;;;10.25;2.45;;;12.90;86.40;;;;;;1960918;72;21424;-70
2021/04/10 12:45:19;;;;;;;9.13;1.90;;;12.80;87.00;;;;;;1964016;72;21099;-70
2021/04/10 12:47:47;;;;;;;7.50;2.10;;;12.80;85.30;;;;;;1961926;72;21082;-70
2021/04/10 12:50:23;;;;;;;7.00;1.98;;;12.90;86.60;;;;;;1961863;72;21188;-70
2021/04/10 12:52:51;;;;;;;9.65;2.33;;;12.90;86.50;;;;;;1962958;72;21071;-70
2021/04/10 12:55:20;;;;;;;7.80;2.27;;;12.90;85.20;;;;;;1960970;72;21134;-72
2021/04/10 12:57:48;;;;;;;11.03;2.52;;;12.80;86.20;;;;;;1961617;72;21047;-69
2021/04/10 13:00:16;;;;;;;11.53;2.45;;;12.80;86.90;;;;;;1964316;72;21470;-69
2021/04/10 13:02:44;;;;;;;9.93;2.02;;;12.70;86.90;;;;;;1963096;72;21097;-70
2021/04/10 13:05:13;;;;;;;8.05;2.15;;;12.70;87.30;;;;;;1964277;72;21182;-70
2021/04/10 13:07:41;;;;;;;8.53;2.50;;;12.70;86.90;;;;;;1962940;72;21096;-70
2021/04/10 13:10:11;;;;;;;8.80;2.35;;;12.70;86.40;;;;;;1964088;72;21616;-71
2021/04/10 13:12:39;;;;;;;7.85;2.33;;;12.70;85.30;;;;;;1968348;72;21630;-69
2021/04/10 13:15:09;;;;;;;6.28;2.20;;;12.50;85.00;;;;;;1964898;72;21090;-69
2021/04/10 13:17:37;;;;;;;8.53;2.83;;;12.50;86.80;;;;;;1962932;72;21705;-69
2021/04/10 13:20:07;;;;;;;8.73;2.42;;;12.60;86.70;;;;;;1963074;72;21121;-69
2021/04/10 13:22:34;;;;;;;9.85;2.80;;;12.60;87.10;;;;;;1959388;72;21035;-69
2021/04/10 13:25:03;;;;;;;8.95;2.45;;;12.60;86.30;;;;;;1964610;72;21081;-69
2021/04/10 13:27:31;;;;;;;9.93;2.27;;;12.70;87.40;;;;;;1962062;72;21108;-69
2021/04/10 13:29:59;;;;;;;5.17;1.65;;;12.60;84.00;;;;;;1955845;72;21075;-69
2021/04/10 13:32:27;;;;;;;8.68;2.20;;;12.60;85.00;;;;;;1966688;72;21493;-70
2021/04/10 13:34:54;;;;;;;10.08;2.33;;;12.60;86.20;;;;;;1962418;72;21066;-70
2021/04/10 13:37:22;;;;;;;12.70;3.20;;;12.50;84.50;;;;;;1962419;72;21672;-69
2021/04/10 13:39:49;;;;;;;9.78;2.87;;;12.60;86.10;;;;;;1964548;72;21095;-70
2021/04/10 13:42:17;;;;;;;13.08;2.92;;;12.60;86.40;;;;;;1960521;72;21079;-70
2021/04/10 13:44:44;;;;;;;9.80;2.95;;;12.50;87.30;;;;;;1961579;72;21163;-69
2021/04/10 13:47:12;;;;;;;8.13;2.75;;;12.60;86.70;;;;;;1957179;72;21087;-70
2021/04/10 13:49:39;;;;;;;9.80;2.02;;;12.60;86.30;;;;;;1960195;72;21619;-69
2021/04/10 13:52:07;;;;;;;10.05;2.45;;;12.60;86.60;;;;;;1952461;72;21183;-69
2021/04/10 13:54:35;;;;;;;8.43;2.52;;;12.60;84.90;;;;;;1956962;72;21094;-69
2021/04/10 13:57:03;;;;;;;7.92;2.17;;;12.60;86.10;;;;;;1967725;72;21586;-70
2021/04/10 13:59:30;;;;;;;9.38;2.40;;;12.60;86.40;;;;;;1954915;72;21059;-70
2021/04/10 14:01:58;;;;;;;12.25;2.50;;;12.50;88.00;;;;;;1963952;72;21533;-69
2021/04/10 14:04:31;;;;;;;7.35;2.60;;;12.30;86.50;;;;;;1964155;72;21043;-69
2021/04/10 14:06:59;;;;;;;7.85;2.42;;;12.40;86.50;;;;;;1963756;72;22155;-69
2021/04/10 14:09:26;;;;;;;8.18;2.62;;;12.40;87.20;;;;;;1965459;72;21172;-69
2021/04/10 14:11:54;;;;;;;12.93;3.02;;;12.40;87.20;;;;;;1958556;72;21144;-69
2021/04/10 14:14:21;;;;;;;8.18;2.67;;;12.40;88.20;;;;;;1964778;72;21521;-68
2021/04/10 14:16:49;;;;;;;7.05;2.55;;;12.40;87.50;;;;;;1966163;72;21090;-71
2021/04/10 14:19:16;;;;;;;9.28;2.58;;;12.40;88.90;;;;;;1962367;72;21193;-68
2021/04/10 14:21:44;;;;;;;4.87;2.10;;;12.40;90.00;;;;;;1956289;72;21062;-67
2021/04/10 14:24:11;;;;;;;7.45;2.40;;;12.50;88.30;;;;;;1961462;72;21086;-70
2021/04/10 14:26:39;;;;;;;10.20;2.77;;;12.50;89.20;;;;;;1962285;72;21105;-69
2021/04/10 14:29:06;;;;;;;9.13;2.90;;;12.40;88.60;;;;;;1962580;72;21168;-69
2021/04/10 14:31:34;;;;;;;10.50;3.00;;;12.50;90.10;;;;;;1950009;72;21575;-69
2021/04/10 14:34:01;;;;;;;9.40;2.42;;;12.40;90.00;;;;;;1963379;72;21031;-69
2021/04/10 14:36:29;;;;;;;7.15;2.50;;;12.50;89.80;;;;;;1967512;72;21024;-69
2021/04/10 14:38:57;;;;;;;9.08;2.85;;;12.50;88.80;;;;;;1965694;72;21055;-69
2021/04/10 14:41:25;;;;;;;7.35;3.33;;;12.50;89.20;;;;;;1908514;75;21117;-69
2021/04/10 14:43:52;;;;;;;10.58;3.17;;;12.50;90.20;;;;;;1963206;72;21075;-69
2021/04/10 14:46:25;;;;;;;8.30;2.90;;;12.50;90.20;;;;;;1960828;72;21361;-69
2021/04/10 14:48:51;;;;;;;;;;;12.50;90.90;;;;;;1967799;72;21187;-69
2021/04/10 14:51:19;;;;;;;9.65;2.92;;;12.50;90.70;;;;;;1961190;72;20267;-68
2021/04/10 14:53:46;;;;;;;12.43;3.40;;;12.40;90.00;;;;;;1961364;72;21664;-69
2021/04/10 14:56:16;;;;;;;10.40;3.40;;;12.30;90.30;;;;;;1966246;72;21086;-68
2021/04/10 14:58:44;;;;;;;8.80;3.40;;;12.30;90.80;;;;;;1964186;72;21078;-68
2021/04/10 15:01:11;;;;;;;11.48;3.40;;;12.40;90.60;;;;;;1965059;72;21119;-68
2021/04/10 15:03:41;;;;;;;11.28;3.25;;;12.20;90.20;;;;;;1957792;72;21148;-69
2021/04/10 15:06:11;;;;;;;10.93;4.33;;;12.10;90.70;;;;;;1965579;72;21114;-69
2021/04/10 15:08:38;;;;;;;11.45;3.75;;;12.10;91.10;;;;;;1960743;72;21071;-69
2021/04/10 15:11:13;;;;;;;10.18;3.33;;;12.20;91.10;;;;;;1961737;72;21187;-69
2021/04/10 15:13:47;;;;;;;10.15;2.72;;;12.10;91.00;;;;;;1960143;72;21070;-69
2021/04/10 15:16:16;;;;;;;14.47;3.42;;;12.20;91.50;;;;;;1962704;72;21024;-70
2021/04/10 15:18:44;;;;;;;11.03;3.87;;;12.20;91.70;;;;;;1962549;72;21096;-69
2021/04/10 15:21:12;;;;;;;12.00;3.22;;;12.10;91.80;;;;;;1957987;72;21524;-69
2021/04/10 15:23:40;;;;;;;8.90;3.50;;;12.10;92.10;;;;;;1953951;72;21062;-69
2021/04/10 15:26:08;;;;;;;10.68;3.20;;;12.00;92.30;;;;;;1961085;72;21101;-70
2021/04/10 15:28:36;;;;;;;8.98;3.17;;;12.00;92.20;;;;;;1963462;72;21148;-69
2021/04/10 15:31:06;;;;;;;12.40;2.98;;;12.00;92.50;;;;;;1960773;72;21165;-69
2021/04/10 15:33:35;;;;;;;12.13;3.08;;;12.10;92.00;;;;;;1964555;72;21172;-69
2021/04/10 15:36:04;;;;;;;9.30;3.12;;;12.10;92.50;;;;;;1966076;72;21067;-69
2021/04/10 15:38:31;;;;;;;11.78;3.50;;;12.10;93.20;;;;;;1964008;72;21078;-69
2021/04/10 15:40:59;;;;;;;7.53;2.75;;;12.10;92.90;;;;;;1965025;72;21125;-69
2021/04/10 15:43:27;;;;;;;9.50;3.05;;;12.10;92.50;;;;;;1962233;72;21191;-69
2021/04/10 15:45:54;;;;;;;10.40;2.70;;;12.00;92.50;;;;;;1961481;72;21063;-69
2021/04/10 15:48:23;;;;;;;12.03;3.25;;;12.00;92.20;;;;;;1963921;72;21112;-69
2021/04/10 15:50:50;;;;;;;9.10;2.87;;;11.90;91.80;;;;;;1965712;72;21585;-69
2021/04/10 15:53:24;;;;;;;8.93;2.65;;;12.00;92.10;;;;;;1961148;72;21120;-69
2021/04/10 15:55:52;;;;;;;8.00;2.58;;;12.00;92.20;;;;;;1964140;72;21141;-69
2021/04/10 15:58:20;;;;;;;14.20;3.08;;;12.00;92.40;;;;;;1965002;72;21214;-68
2021/04/10 16:00:48;;;;;;;7.70;2.65;;;11.90;92.80;;;;;;1967293;72;21246;-69
2021/04/10 16:03:16;;;;;;;13.55;3.70;;;12.00;92.20;;;;;;1963273;72;21141;-69
2021/04/10 16:05:44;;;;;;;9.45;3.20;;;12.00;91.90;;;;;;1961769;72;21215;-69
2021/04/10 16:08:12;;;;;;;12.98;3.87;;;12.00;92.10;;;;;;1958757;72;21152;-69
2021/04/10 16:10:39;;;;;;;12.70;3.40;;;12.00;92.30;;;;;;1950000;72;21293;-69
2021/04/10 16:13:07;;;;;;;10.08;2.90;;;12.00;92.10;;;;;;1965192;72;21026;-69
2021/04/10 16:15:35;;;;;;;12.13;3.20;;;11.90;92.50;;;;;;1966470;72;21207;-69
2021/04/10 16:18:02;;;;;;;8.95;2.90;;;11.90;92.60;;;;;;1962726;72;21623;-69
2021/04/10 16:20:30;;;;;;;12.13;2.98;;;11.90;92.80;;;;;;1957129;72;21117;-69
2021/04/10 16:22:58;;;;;;;9.38;2.83;;;12.00;92.50;;;;;;1963146;72;21055;-69
2021/04/10 16:25:28;;;;;;;9.85;2.90;;;11.90;92.50;;;;;;1959209;72;21101;-69
2021/04/10 16:27:57;;;;;;;7.80;2.83;;;11.90;92.80;;;;;;1960513;72;21570;-69
2021/04/10 16:30:26;;;;;;;13.48;3.20;;;11.90;93.00;;;;;;1955332;72;21571;-69
2021/04/10 16:32:55;;;;;;;10.50;3.47;;;11.90;93.00;;;;;;1959039;72;21157;-69
2021/04/10 16:35:24;;;;;;;12.55;3.60;;;11.90;93.90;;;;;;1965362;72;21165;-69
2021/04/10 16:37:52;;;;;;;14.43;3.30;;;11.70;93.90;;;;;;1955995;72;21098;-70
2021/04/10 16:40:22;;;;;;;8.53;3.17;;;11.70;94.60;;;;;;1963386;72;21180;-69
2021/04/10 16:42:50;;;;;;;7.90;2.98;;;11.80;95.20;;;;;;1967824;72;21136;-69
2021/04/10 16:45:19;;;;;;;11.88;3.20;;;11.70;95.40;;;;;;1963643;72;21197;-70
2021/04/10 16:47:47;;;;;;;7.33;2.90;;;11.70;95.50;;;;;;1965175;72;20995;-69
2021/04/10 16:50:15;;;;;;;11.70;3.55;;;11.70;95.40;;;;;;1961804;72;21027;-69
2021/04/10 16:52:42;;;;;;;12.00;3.15;;;11.60;95.60;;;;;;1963593;72;21085;-69
2021/04/10 16:55:11;;;;;;;12.80;3.33;;;11.60;96.00;;;;;;1964210;72;20972;-69
2021/04/10 16:57:38;;;;;;;9.60;3.33;;;11.50;96.10;;;;;;1964273;72;21541;-69
2021/04/10 17:00:09;;;;;;;9.68;3.20;;;11.40;96.00;;;;;;1964747;72;21051;-69
2021/04/10 17:02:37;;;;;;;8.40;3.05;;;11.40;96.90;;;;;;1907931;74;21160;-69
2021/04/10 17:05:06;;;;;;;10.30;3.12;;;11.40;97.00;;;;;;1916167;74;21120;-70
2021/04/10 17:07:34;;;;;;;9.38;3.75;;;11.50;96.90;;;;;;1957769;72;21058;-70